Terminal Aerodrome Forecast
Issued by NWS Cleveland, OH

Home | Current Version | Previous Version | Graphics & Text | Print | Product List | Glossary Off
Versions: 1 2 3 4 5 6 7 8 9 10 11 12 13 14 15 16 17 18 19 20 21 22 23 24 25 26 27 28 29 30 31 32 33 34

000
FTUS41 KCLE 242100 AAA
TAFCLE
TAF AMD
KCLE 242127Z 2421/2524 18012G24KT P6SM -SHRA VCTS BKN015CB OVC022
      TEMPO 2421/2423 4SM -SHRA BR BKN008 OVC020
     FM242300 18018G30KT 4SM TSRA BR OVC008CB
     FM250000 22025G45KT 6SM TSRA BR OVC012CB
     FM250900 24020G32KT 3SM -SHSN OVC018
     FM251200 24020G30KT P6SM OVC018
     FM251500 25012G25KT 5SM -SHSN BR OVC018=

USA.gov is the U.S. government's official web portal to all federal, state and local government web resources and services.